createdAt,value
2022-11-25T00:01:34.595Z,7.35
2022-11-25T00:04:03.179Z,7.37
2022-11-25T00:06:33.425Z,7.44
2022-11-25T00:09:03.293Z,7.47
2022-11-25T00:11:31.742Z,7.47
2022-11-25T00:13:59.797Z,7.49
2022-11-25T00:16:29.392Z,7.54
2022-11-25T00:18:58.814Z,7.54
2022-11-25T00:21:28.844Z,7.62
2022-11-25T00:23:58.323Z,7.61
2022-11-25T00:26:27.464Z,7.62
2022-11-25T00:28:57.847Z,7.59
2022-11-25T00:31:28.921Z,7.60
2022-11-25T00:33:59.749Z,7.61
2022-11-25T00:36:31.008Z,7.53
2022-11-25T00:39:00.707Z,7.60
2022-11-25T00:41:47.113Z,7.57
2022-11-25T00:44:35.193Z,7.52
2022-11-25T00:47:05.271Z,7.57
2022-11-25T00:49:33.820Z,7.59
2022-11-25T00:52:02.308Z,7.54
2022-11-25T00:54:30.343Z,7.57
2022-11-25T00:56:58.959Z,7.52
2022-11-25T00:59:28.914Z,7.53
2022-11-25T01:01:57.125Z,7.48
2022-11-25T01:04:27.227Z,7.37
2022-11-25T01:06:57.020Z,7.38
2022-11-25T01:09:25.208Z,7.36
2022-11-25T01:11:53.636Z,7.31
2022-11-25T01:14:23.155Z,7.25
2022-11-25T01:16:51.589Z,7.22
2022-11-25T01:19:20.707Z,7.27
2022-11-25T01:21:50.217Z,7.25
2022-11-25T01:24:19.452Z,7.22
2022-11-25T01:26:47.480Z,7.19
2022-11-25T01:29:17.732Z,7.18
2022-11-25T01:31:49.472Z,7.18
2022-11-25T01:34:19.907Z,7.16
2022-11-25T01:36:49.342Z,7.11
2022-11-25T01:39:19.421Z,7.14
2022-11-25T01:41:48.510Z,7.12
2022-11-25T01:44:18.178Z,7.01
2022-11-25T01:47:06.563Z,6.93
2022-11-25T01:49:40.893Z,6.92
2022-11-25T01:52:16.470Z,6.91
2022-11-25T01:54:50.869Z,6.94
2022-11-25T01:57:26.182Z,7.00
2022-11-25T01:59:58.770Z,6.97
2022-11-25T02:02:27.220Z,7.00
2022-11-25T02:04:55.127Z,6.94
2022-11-25T02:07:32.289Z,7.01
2022-11-25T02:10:03.007Z,7.03
2022-11-25T02:12:32.203Z,6.99
2022-11-25T02:15:00.574Z,7.03
2022-11-25T02:17:28.685Z,7.01
2022-11-25T02:20:03.044Z,7.05
2022-11-25T02:22:43.186Z,7.03
2022-11-25T02:25:16.684Z,7.09
2022-11-25T02:27:47.590Z,7.09
2022-11-25T02:30:15.973Z,7.07
2022-11-25T02:32:47.502Z,7.09
2022-11-25T02:35:37.970Z,7.13
2022-11-25T02:38:10.212Z,7.12
2022-11-25T02:40:45.541Z,7.17
2022-11-25T02:43:13.745Z,7.16
2022-11-25T02:46:03.576Z,7.20
2022-11-25T02:49:06.916Z,7.16
2022-11-25T02:51:24.555Z,7.15
2022-11-25T02:53:53.120Z,7.14
2022-11-25T02:56:26.329Z,7.12
2022-11-25T02:58:54.489Z,7.10
2022-11-25T03:01:23.167Z,7.13
2022-11-25T03:03:51.164Z,7.18
2022-11-25T03:06:19.439Z,7.12
2022-11-25T03:08:47.389Z,7.16
2022-11-25T03:11:15.812Z,7.13
2022-11-25T03:13:45.303Z,7.11
2022-11-25T03:16:13.306Z,7.07
2022-11-25T03:18:41.255Z,7.05
2022-11-25T03:21:09.289Z,7.03
2022-11-25T03:23:37.144Z,6.99
2022-11-25T03:26:07.231Z,6.92
2022-11-25T03:28:35.218Z,6.94
2022-11-25T03:31:04.517Z,6.94
2022-11-25T03:33:32.408Z,6.85
2022-11-25T03:36:00.278Z,6.83
2022-11-25T03:38:28.332Z,6.83
2022-11-25T03:40:56.200Z,6.79
2022-11-25T03:43:24.098Z,6.78
2022-11-25T03:45:52.143Z,6.73
2022-11-25T03:48:21.653Z,6.70
2022-11-25T03:50:49.827Z,6.62
2022-11-25T03:53:17.780Z,6.60
2022-11-25T03:55:48.446Z,6.62
2022-11-25T03:58:16.542Z,6.56
2022-11-25T04:00:44.411Z,6.51
2022-11-25T04:03:12.283Z,6.59
2022-11-25T04:05:42.602Z,6.59
2022-11-25T04:08:10.713Z,6.57
2022-11-25T04:10:38.698Z,6.62
2022-11-25T04:13:05.680Z,6.64
2022-11-25T04:15:33.585Z,6.67
2022-11-25T04:18:01.562Z,6.68
2022-11-25T04:20:29.590Z,6.65
2022-11-25T04:22:58.878Z,6.66
2022-11-25T04:25:26.927Z,6.63
2022-11-25T04:27:54.977Z,6.67
2022-11-25T04:30:22.859Z,6.65
2022-11-25T04:32:50.871Z,6.71
2022-11-25T04:35:18.999Z,6.69
2022-11-25T04:37:47.093Z,6.64
2022-11-25T04:40:16.882Z,6.58
2022-11-25T04:42:44.957Z,6.54
2022-11-25T04:45:22.907Z,6.46
2022-11-25T04:47:51.667Z,6.51
2022-11-25T04:50:22.830Z,6.55
2022-11-25T04:52:51.170Z,6.65
2022-11-25T04:55:21.077Z,6.60
2022-11-25T04:57:49.049Z,6.63
2022-11-25T05:00:16.760Z,6.57
2022-11-25T05:02:44.932Z,6.50
2022-11-25T05:05:14.035Z,6.51
2022-11-25T05:07:42.539Z,6.58
2022-11-25T05:10:10.940Z,6.57
2022-11-25T05:12:40.462Z,6.63
2022-11-25T05:15:10.117Z,6.66
2022-11-25T05:17:38.984Z,6.66
2022-11-25T05:20:08.676Z,6.65
2022-11-25T05:22:37.137Z,6.68
2022-11-25T05:25:06.868Z,6.73
2022-11-25T05:27:35.017Z,6.70
2022-11-25T05:30:04.949Z,6.73
2022-11-25T05:32:33.056Z,6.65
2022-11-25T05:35:00.999Z,6.63
2022-11-25T05:37:29.092Z,6.54
2022-11-25T05:39:57.227Z,6.54
2022-11-25T05:42:25.221Z,6.50
2022-11-25T05:44:53.484Z,6.53
2022-11-25T05:47:22.807Z,6.49
2022-11-25T05:49:50.814Z,6.59
2022-11-25T05:52:19.014Z,6.65
2022-11-25T05:54:46.914Z,6.70
2022-11-25T05:57:14.872Z,6.81
2022-11-25T05:59:43.396Z,6.82
2022-11-25T06:02:11.559Z,6.99
2022-11-25T06:04:41.187Z,7.03
2022-11-25T06:07:09.460Z,7.15
2022-11-25T06:09:37.453Z,7.16
2022-11-25T06:12:05.718Z,7.17
2022-11-25T06:14:34.144Z,7.20
2022-11-25T06:17:02.284Z,7.21
2022-11-25T06:19:30.269Z,7.19
2022-11-25T06:21:59.594Z,7.11
2022-11-25T06:24:27.518Z,7.15
2022-11-25T06:26:55.386Z,7.15
2022-11-25T06:29:23.358Z,7.05
2022-11-25T06:31:51.430Z,7.06
2022-11-25T06:34:19.336Z,7.08
2022-11-25T06:36:47.321Z,7.07
2022-11-25T06:39:16.600Z,7.09
2022-11-25T06:41:44.518Z,7.01
2022-11-25T06:44:12.515Z,7.04
2022-11-25T06:46:40.541Z,7.07
2022-11-25T06:49:08.433Z,7.03
2022-11-25T06:51:36.495Z,7.01
2022-11-25T06:54:04.442Z,7.04
2022-11-25T06:56:33.707Z,6.97
2022-11-25T06:59:01.552Z,6.95
2022-11-25T07:01:30.684Z,6.95
2022-11-25T07:04:01.525Z,7.02
2022-11-25T07:06:29.489Z,7.01
2022-11-25T07:08:58.214Z,7.03
2022-11-25T07:11:29.194Z,7.08
2022-11-25T07:14:00.948Z,7.15
2022-11-25T07:16:29.734Z,7.15
2022-11-25T07:18:57.853Z,7.19
2022-11-25T07:21:26.587Z,7.22
2022-11-25T07:23:55.023Z,7.22
2022-11-25T07:26:24.821Z,7.35
2022-11-25T07:28:55.980Z,7.45
2022-11-25T07:31:31.505Z,7.50
2022-11-25T07:34:02.567Z,7.49
2022-11-25T07:36:32.124Z,7.41
2022-11-25T07:39:01.598Z,7.48
2022-11-25T07:41:31.015Z,7.50
2022-11-25T07:44:00.888Z,7.59
2022-11-25T07:46:32.259Z,7.59
2022-11-25T07:49:03.684Z,7.66
2022-11-25T07:51:34.150Z,7.74
2022-11-25T07:54:03.914Z,7.74
2022-11-25T07:56:32.504Z,7.74
2022-11-25T07:59:00.573Z,7.70
2022-11-25T08:01:28.907Z,7.60
2022-11-25T08:03:58.273Z,7.62
2022-11-25T08:06:28.285Z,7.61
2022-11-25T08:08:58.452Z,7.66
2022-11-25T08:11:27.718Z,7.75
2022-11-25T08:13:55.951Z,7.86
2022-11-25T08:16:26.406Z,7.94
2022-11-25T08:18:55.497Z,7.86
2022-11-25T08:21:25.467Z,7.81
2022-11-25T08:23:53.525Z,7.91
2022-11-25T08:26:24.399Z,8.04
2022-11-25T08:28:52.465Z,8.03
2022-11-25T08:31:23.011Z,8.08
2022-11-25T08:33:52.339Z,8.11
2022-11-25T08:36:21.500Z,8.15
2022-11-25T08:38:52.836Z,8.15
2022-11-25T08:41:23.676Z,8.15
2022-11-25T08:43:51.913Z,8.14
2022-11-25T08:46:22.603Z,8.05
2022-11-25T08:48:50.929Z,8.04
2022-11-25T08:51:21.790Z,7.97
2022-11-25T08:53:52.314Z,7.97
2022-11-25T08:56:25.983Z,8.06
2022-11-25T08:58:55.126Z,8.12
2022-11-25T09:01:25.104Z,8.26
2022-11-25T09:03:55.699Z,8.16
2022-11-25T09:06:24.382Z,8.34
2022-11-25T09:08:56.626Z,8.39
2022-11-25T09:11:24.838Z,8.44
2022-11-25T09:13:52.803Z,8.46
2022-11-25T09:16:23.337Z,8.50
2022-11-25T09:18:55.810Z,8.52
2022-11-25T09:21:25.460Z,8.59
2022-11-25T09:23:55.796Z,8.66
2022-11-25T09:26:25.731Z,8.43
2022-11-25T09:28:53.993Z,8.55
2022-11-25T09:31:22.697Z,8.58
2022-11-25T09:33:51.129Z,8.56
2022-11-25T09:36:20.367Z,8.57
2022-11-25T09:38:48.571Z,8.68
2022-11-25T09:41:52.240Z,8.70
2022-11-25T09:44:53.134Z,8.63
2022-11-25T09:47:31.872Z,8.68
2022-11-25T09:50:12.067Z,8.60
2022-11-25T09:52:51.473Z,8.58
2022-11-25T09:55:22.007Z,8.54
2022-11-25T09:58:02.902Z,8.62
2022-11-25T10:00:39.126Z,8.53
2022-11-25T10:03:15.508Z,8.50
2022-11-25T10:05:48.361Z,8.45
2022-11-25T10:08:20.845Z,8.46
2022-11-25T10:10:51.114Z,8.46
2022-11-25T10:13:26.220Z,8.48
2022-11-25T10:16:00.300Z,8.55
2022-11-25T10:18:34.689Z,8.56
2022-11-25T10:21:02.755Z,8.51
2022-11-25T10:23:35.812Z,8.54
2022-11-25T10:26:13.920Z,8.57
2022-11-25T10:28:52.272Z,8.50
2022-11-25T10:31:22.138Z,8.44
2022-11-25T10:33:53.192Z,8.44
2022-11-25T10:36:24.255Z,8.51
2022-11-25T10:38:58.485Z,8.55
2022-11-25T10:41:30.961Z,8.66
2022-11-25T10:44:00.505Z,8.71
2022-11-25T10:46:56.980Z,8.72
2022-11-25T10:49:30.803Z,8.72
2022-11-25T10:51:59.003Z,8.77
2022-11-25T10:54:28.392Z,8.79
2022-11-25T10:56:58.545Z,8.81
2022-11-25T10:59:32.019Z,8.86
2022-11-25T11:02:20.396Z,8.91
2022-11-25T11:04:55.615Z,8.94
2022-11-25T11:07:25.103Z,8.96
2022-11-25T11:09:53.887Z,9.02
2022-11-25T11:12:24.931Z,9.02
2022-11-25T11:14:56.108Z,9.05
2022-11-25T11:17:36.348Z,9.10
2022-11-25T11:20:17.773Z,9.10
2022-11-25T11:22:55.449Z,9.14
2022-11-25T11:25:35.033Z,9.15
2022-11-25T11:28:05.807Z,9.09
2022-11-25T11:30:36.423Z,9.09
2022-11-25T11:33:08.535Z,9.06
2022-11-25T11:35:58.440Z,9.12
2022-11-25T11:38:34.105Z,9.20
2022-11-25T11:41:15.035Z,9.19
2022-11-25T11:43:58.540Z,9.16
2022-11-25T11:46:42.751Z,9.09
2022-11-25T11:49:33.769Z,9.10
2022-11-25T11:52:10.666Z,9.12
2022-11-25T11:54:45.767Z,9.16
2022-11-25T11:57:22.993Z,9.16
2022-11-25T11:59:53.954Z,9.19
2022-11-25T12:02:41.685Z,9.24
2022-11-25T12:05:17.016Z,9.24
2022-11-25T12:07:53.216Z,9.22
2022-11-25T12:10:27.165Z,9.31
2022-11-25T12:13:05.911Z,9.38
2022-11-25T12:15:43.464Z,9.32
2022-11-25T12:18:21.090Z,9.36
2022-11-25T12:20:56.758Z,9.33
2022-11-25T12:23:36.138Z,9.28
2022-11-25T12:26:09.420Z,9.29
2022-11-25T12:28:41.554Z,9.32
2022-11-25T12:31:18.380Z,9.35
2022-11-25T12:33:57.774Z,9.34
2022-11-25T12:36:32.606Z,9.41
2022-11-25T12:39:04.092Z,9.36
2022-11-25T12:41:41.690Z,9.42
2022-11-25T12:44:15.981Z,9.38
2022-11-25T12:46:47.713Z,9.44
2022-11-25T12:49:21.070Z,9.45
2022-11-25T12:52:12.397Z,9.53
2022-11-25T12:55:04.165Z,9.57
2022-11-25T12:58:10.809Z,9.59
2022-11-25T13:01:01.963Z,9.62
2022-11-25T13:04:14.013Z,9.69
2022-11-25T13:07:08.784Z,9.70
2022-11-25T13:10:25.586Z,9.70
2022-11-25T13:13:17.755Z,9.72
2022-11-25T13:15:48.415Z,9.81
2022-11-25T13:18:20.869Z,9.80
2022-11-25T13:20:51.042Z,9.84
2022-11-25T13:23:30.401Z,9.86
2022-11-25T13:26:37.158Z,9.94
2022-11-25T13:30:02.298Z,9.92
2022-11-25T13:32:42.480Z,9.93
2022-11-25T13:35:49.339Z,9.98
2022-11-25T13:38:59.186Z,10.02
2022-11-25T13:41:41.514Z,10.01
2022-11-25T13:44:20.061Z,10.05
2022-11-25T13:46:51.513Z,10.12
2022-11-25T13:49:34.831Z,10.12
2022-11-25T13:52:05.558Z,10.19
2022-11-25T13:54:40.617Z,10.17
2022-11-25T13:57:27.597Z,10.20
2022-11-25T13:59:59.188Z,10.17
2022-11-25T14:02:38.247Z,10.18
2022-11-25T14:05:26.097Z,10.23
2022-11-25T14:08:08.324Z,10.30
2022-11-25T14:10:46.271Z,10.30
2022-11-25T14:13:35.795Z,10.35
2022-11-25T14:16:21.916Z,10.31
2022-11-25T14:22:08.713Z,10.34
2022-11-25T14:24:39.828Z,10.41
2022-11-25T14:27:16.974Z,10.42
2022-11-25T14:29:48.042Z,10.53
2022-11-25T14:32:21.362Z,10.56
2022-11-25T14:34:54.114Z,10.53
2022-11-25T14:37:28.699Z,10.54
2022-11-25T14:39:59.850Z,10.55
2022-11-25T14:42:34.446Z,10.51
2022-11-25T14:45:03.261Z,10.49
2022-11-25T14:47:37.592Z,10.49
2022-11-25T14:53:02.249Z,10.42
2022-11-25T14:55:32.412Z,10.42
2022-11-25T14:58:01.796Z,10.43
2022-11-25T15:00:30.007Z,10.42
2022-11-25T15:03:00.933Z,10.40
2022-11-25T15:05:34.070Z,10.39
2022-11-25T15:08:05.534Z,10.43
2022-11-25T15:10:42.365Z,10.41
2022-11-25T15:13:26.088Z,10.43
2022-11-25T15:15:55.993Z,10.49
2022-11-25T15:18:26.311Z,10.46
2022-11-25T15:20:58.966Z,10.53
2022-11-25T15:23:32.021Z,10.56
2022-11-25T15:26:01.302Z,10.60
2022-11-25T15:28:36.783Z,10.65
2022-11-25T15:31:10.614Z,10.66
2022-11-25T15:33:39.658Z,10.66
2022-11-25T15:36:08.082Z,10.58
2022-11-25T15:38:39.256Z,10.60
2022-11-25T15:41:14.998Z,10.62
2022-11-25T15:43:47.499Z,10.67
2022-11-25T15:46:16.302Z,10.67
2022-11-25T15:48:46.930Z,10.63
2022-11-25T15:51:25.870Z,10.72
2022-11-25T15:53:56.628Z,10.74
2022-11-25T15:56:27.407Z,10.74
2022-11-25T15:59:01.525Z,10.81
2022-11-25T16:01:30.943Z,10.81
2022-11-25T16:04:25.581Z,10.88
2022-11-25T16:06:55.262Z,10.85
2022-11-25T16:09:25.540Z,10.80
2022-11-25T16:11:53.644Z,10.81
2022-11-25T16:14:27.991Z,10.89
2022-11-25T16:17:02.614Z,10.89
2022-11-25T16:19:37.983Z,10.87
2022-11-25T16:22:06.861Z,10.89
2022-11-25T16:24:50.765Z,10.89
2022-11-25T16:27:24.664Z,10.92
2022-11-25T16:29:56.947Z,10.97
2022-11-25T16:32:27.110Z,10.94
2022-11-25T16:34:58.431Z,10.94
2022-11-25T16:37:26.381Z,10.93
2022-11-25T16:39:54.327Z,10.92
2022-11-25T16:42:23.577Z,10.91
2022-11-25T16:44:53.432Z,10.94
2022-11-25T16:47:24.325Z,10.96
2022-11-25T16:49:53.103Z,10.98
2022-11-25T16:52:20.993Z,11.03
2022-11-25T16:54:49.116Z,11.02
2022-11-25T16:57:21.882Z,10.99
2022-11-25T16:59:55.911Z,11.01
2022-11-25T17:02:28.410Z,11.00
2022-11-25T17:04:58.192Z,11.06
2022-11-25T17:07:34.423Z,11.03
2022-11-25T17:10:15.623Z,11.05
2022-11-25T17:12:53.991Z,11.15
2022-11-25T17:15:30.237Z,11.19
2022-11-25T17:18:00.539Z,11.18
2022-11-25T17:20:28.740Z,11.18
2022-11-25T17:22:57.362Z,11.18
2022-11-25T17:25:33.673Z,11.20
2022-11-25T17:28:05.225Z,11.15
2022-11-25T17:30:33.602Z,11.12
2022-11-25T17:33:05.863Z,11.09
2022-11-25T17:35:34.055Z,11.13
2022-11-25T17:38:02.719Z,11.19
2022-11-25T17:40:31.008Z,11.21
2022-11-25T17:42:59.011Z,11.15
2022-11-25T17:45:27.146Z,11.08
2022-11-25T17:47:55.251Z,11.04
2022-11-25T17:50:26.951Z,11.04
2022-11-25T17:52:55.709Z,11.06
2022-11-25T17:55:24.774Z,11.04
2022-11-25T17:57:53.398Z,11.04
2022-11-25T18:00:23.671Z,11.06
2022-11-25T18:02:52.442Z,10.98
2022-11-25T18:05:22.794Z,10.99
2022-11-25T18:07:52.667Z,10.98
2022-11-25T18:10:23.876Z,11.06
2022-11-25T18:12:54.367Z,11.06
2022-11-25T18:15:25.160Z,11.06
2022-11-25T18:18:03.461Z,11.03
2022-11-25T18:20:33.166Z,10.98
2022-11-25T18:23:02.771Z,11.01
2022-11-25T18:25:33.066Z,11.05
2022-11-25T18:28:02.246Z,11.05
2022-11-25T18:30:33.579Z,11.00
2022-11-25T18:33:01.962Z,11.03
2022-11-25T18:35:36.164Z,11.01
2022-11-25T18:38:06.937Z,10.93
2022-11-25T18:40:37.187Z,10.94
2022-11-25T18:43:06.474Z,10.94
2022-11-25T18:45:38.109Z,10.97
2022-11-25T18:48:14.762Z,10.94
2022-11-25T18:51:11.422Z,10.97
2022-11-25T18:53:43.548Z,10.93
2022-11-25T18:56:33.410Z,10.94
2022-11-25T18:59:15.216Z,11.04
2022-11-25T19:01:59.997Z,11.08
2022-11-25T19:04:28.692Z,11.14
2022-11-25T19:06:56.750Z,11.14
2022-11-25T19:09:26.207Z,11.16
2022-11-25T19:11:55.550Z,11.15
2022-11-25T19:14:30.406Z,11.09
2022-11-25T19:17:02.460Z,11.11
2022-11-25T19:19:31.052Z,11.17
2022-11-25T19:22:01.501Z,11.22
2022-11-25T19:24:30.959Z,11.28
2022-11-25T19:26:59.218Z,11.32
2022-11-25T19:29:38.805Z,11.33
2022-11-25T19:32:18.392Z,11.24
2022-11-25T19:34:49.563Z,11.28
2022-11-25T19:37:20.581Z,11.35
2022-11-25T19:39:50.978Z,11.29
2022-11-25T19:42:19.304Z,11.27
2022-11-25T19:44:48.041Z,11.28
2022-11-25T19:47:21.037Z,11.29
2022-11-25T19:49:50.998Z,11.31
2022-11-25T19:52:22.227Z,11.35
2022-11-25T19:54:52.398Z,11.38
2022-11-25T19:57:23.232Z,11.35
2022-11-25T19:59:54.745Z,11.30
2022-11-25T20:02:25.376Z,11.34
2022-11-25T20:04:56.405Z,11.33
2022-11-25T20:07:25.045Z,11.29
2022-11-25T20:09:56.533Z,11.33
2022-11-25T20:12:29.337Z,11.33
2022-11-25T20:14:58.001Z,11.28
2022-11-25T20:17:29.078Z,11.34
2022-11-25T20:20:00.142Z,11.33
2022-11-25T20:22:32.760Z,11.32
2022-11-25T20:25:05.458Z,11.32
2022-11-25T20:27:34.345Z,11.21
2022-11-25T20:30:02.182Z,11.24
2022-11-25T20:32:34.073Z,11.25
2022-11-25T20:35:02.277Z,11.28
2022-11-25T20:37:40.526Z,11.26
2022-11-25T20:40:18.770Z,11.24
2022-11-25T20:42:47.121Z,11.26
2022-11-25T20:45:16.494Z,11.22
2022-11-25T20:47:44.901Z,11.26
2022-11-25T20:50:14.887Z,11.28
2022-11-25T20:52:43.756Z,11.27
2022-11-25T20:55:19.276Z,11.24
2022-11-25T20:57:47.932Z,11.24
2022-11-25T21:00:19.188Z,11.21
2022-11-25T21:02:47.630Z,11.22
2022-11-25T21:05:19.574Z,11.28
2022-11-25T21:07:48.777Z,11.28
2022-11-25T21:10:27.505Z,11.26
2022-11-25T21:12:56.880Z,11.20
2022-11-25T21:15:27.700Z,11.26
2022-11-25T21:17:57.607Z,11.31
2022-11-25T21:20:25.802Z,11.34
2022-11-25T21:22:57.985Z,11.32
2022-11-25T21:25:27.499Z,11.29
2022-11-25T21:27:55.766Z,11.25
2022-11-25T21:30:25.894Z,11.28
2022-11-25T21:32:58.225Z,11.28
2022-11-25T21:35:31.748Z,11.23
2022-11-25T21:38:00.158Z,11.23
2022-11-25T21:40:38.324Z,11.23
2022-11-25T21:43:18.417Z,11.22
2022-11-25T21:45:50.484Z,11.22
2022-11-25T21:48:21.488Z,11.22
2022-11-25T21:50:49.952Z,11.21
2022-11-25T21:53:18.240Z,11.21
2022-11-25T21:55:48.463Z,11.21
2022-11-25T21:58:18.844Z,11.23
2022-11-25T22:00:51.004Z,11.23
2022-11-25T22:03:21.409Z,11.17
2022-11-25T22:05:50.202Z,11.16
2022-11-25T22:08:18.698Z,11.20
2022-11-25T22:10:56.391Z,11.15
2022-11-25T22:13:30.613Z,11.10
2022-11-25T22:16:00.357Z,11.05
2022-11-25T22:18:34.792Z,10.97
2022-11-25T22:21:03.917Z,10.86
2022-11-25T22:23:33.883Z,10.76
2022-11-25T22:26:05.723Z,10.71
2022-11-25T22:28:33.776Z,10.63
2022-11-25T22:31:06.235Z,10.55
2022-11-25T22:33:36.518Z,10.52
2022-11-25T22:36:05.220Z,10.45
2022-11-25T22:38:33.423Z,10.41
2022-11-25T22:41:07.356Z,10.36
2022-11-25T22:43:40.241Z,10.34
2022-11-25T22:46:08.247Z,10.29
2022-11-25T22:48:38.377Z,10.25
2022-11-25T22:51:10.141Z,10.20
2022-11-25T22:53:39.168Z,10.17
2022-11-25T22:56:17.432Z,10.17
2022-11-25T22:58:45.857Z,10.19
2022-11-25T23:01:15.468Z,10.13
2022-11-25T23:03:45.747Z,10.12
2022-11-25T23:06:14.656Z,10.08
2022-11-25T23:08:42.585Z,10.02
2022-11-25T23:11:19.178Z,9.99
2022-11-25T23:13:48.706Z,9.95
2022-11-25T23:16:17.595Z,9.94
2022-11-25T23:18:47.662Z,9.90
2022-11-25T23:21:18.897Z,9.90
2022-11-25T23:23:47.088Z,9.89
2022-11-25T23:26:16.831Z,9.84
2022-11-25T23:28:44.771Z,9.81
2022-11-25T23:31:14.674Z,9.77
2022-11-25T23:33:46.292Z,9.74
2022-11-25T23:36:16.685Z,9.71
2022-11-25T23:38:50.902Z,9.71
2022-11-25T23:41:22.169Z,9.69
2022-11-25T23:43:50.753Z,9.67
2022-11-25T23:46:22.311Z,9.65
2022-11-25T23:48:55.994Z,9.62
2022-11-25T23:51:25.058Z,9.60
2022-11-25T23:53:53.586Z,9.57
2022-11-25T23:56:23.297Z,9.54
2022-11-25T23:58:51.612Z,9.53
